Time;durP1;ratioP1;P1;durP2;ratioP2;P2;SDS_P1;SDS_P2;PMS_P1;PMS_P2;Temp;Humidity;BMP_temperature;BMP_pressure;BME280_temperature;BME280_humidity;BME280_pressure;Samples;Min_cycle;Max_cycle;Signal;HPM_P1;HPM_P2
2021/05/23 00:01:16;;;;;;;5.13;3.47;;;;;;;17.17;57.38;100337.64;126169;1099;104239;-78
2021/05/23 00:03:45;;;;;;;6.80;3.67;;;;;;;17.18;57.67;100341.16;126157;1099;104284;-78
2021/05/23 00:06:14;;;;;;;6.77;3.33;;;;;;;17.17;57.87;100337.64;126222;1099;104632;-79
2021/05/23 00:08:43;;;;;;;6.70;3.60;;;;;;;17.14;57.37;100337.62;126130;1099;104367;-80
2021/05/23 00:11:13;;;;;;;5.53;3.60;;;;;;;17.12;57.77;100347.30;126175;1099;104309;-78
2021/05/23 00:13:45;;;;;;;6.47;3.50;;;;;;;17.07;57.61;100335.80;126161;1099;105375;-79
2021/05/23 00:16:20;;;;;;;6.73;3.33;;;;;;;17.04;57.84;100341.95;125379;1099;104317;-79
2021/05/23 00:18:53;;;;;;;10.30;3.60;;;;;;;17.01;58.05;100346.35;125952;1098;104662;-79
2021/05/23 00:21:26;;;;;;;7.00;3.20;;;;;;;16.98;58.10;100336.61;126194;1099;104201;-79
2021/05/23 00:23:55;;;;;;;7.70;3.40;;;;;;;16.92;57.94;100328.61;126161;1099;104360;-78
2021/05/23 00:26:25;;;;;;;3.87;3.27;;;;;;;16.97;57.68;100337.50;126260;1099;104681;-78
2021/05/23 00:28:54;;;;;;;7.07;3.37;;;;;;;16.97;58.37;100337.50;126209;1099;104165;-78
2021/05/23 00:31:23;;;;;;;5.37;3.47;;;;;;;16.96;57.89;100332.19;126236;1097;104229;-80
2021/05/23 00:33:53;;;;;;;7.33;3.50;;;;;;;16.94;58.68;100344.52;126234;1099;104249;-79
2021/05/23 00:36:25;;;;;;;6.67;3.73;;;;;;;16.90;57.87;100351.58;126234;1099;104189;-80
2021/05/23 00:38:55;;;;;;;8.60;4.53;;;;;;;16.86;58.26;100342.73;126264;1099;104179;-79
2021/05/23 00:41:24;;;;;;;9.40;4.63;;;;;;;16.84;58.73;100348.84;126311;1099;104162;-80
2021/05/23 00:43:54;;;;;;;10.47;4.50;;;;;;;16.81;58.27;100333.83;126300;1099;104185;-78
2021/05/23 00:46:23;;;;;;;12.00;4.83;;;;;;;16.80;58.20;100339.12;126299;1099;104262;-79
2021/05/23 00:48:52;;;;;;;9.90;4.37;;;;;;;16.79;58.99;100335.56;126208;1098;104355;-78
2021/05/23 00:51:22;;;;;;;8.13;4.20;;;;;;;16.81;58.41;100339.13;126275;1099;104210;-78
2021/05/23 00:53:52;;;;;;;7.00;3.87;;;;;;;16.85;58.61;100350.62;126257;1099;104175;-79
2021/05/23 00:56:21;;;;;;;7.90;3.90;;;;;;;16.86;58.35;100358.63;126315;1099;104213;-80
2021/05/23 00:58:51;;;;;;;8.00;4.20;;;;;;;16.89;59.04;100357.73;126227;1099;104150;-78
2021/05/23 01:01:46;;;;;;;7.27;4.00;;;;;;;16.91;58.95;100349.80;126143;1099;104341;-78
2021/05/23 01:04:15;;;;;;;9.93;4.10;;;;;;;16.91;59.04;100345.41;125201;1099;104165;-78
2021/05/23 01:06:45;;;;;;;7.03;4.10;;;;;;;16.92;58.58;100351.59;125221;1099;104274;-80
2021/05/23 01:09:14;;;;;;;8.10;3.90;;;;;;;16.92;59.23;100352.46;125212;1099;104172;-80
2021/05/23 01:12:19;;;;;;;10.03;4.23;;;;;;;16.91;59.24;100356.02;125234;1100;104321;-79
2021/05/23 01:14:52;;;;;;;;;;;;;;;16.88;59.38;100345.39;125252;1099;104322;-77
2021/05/23 01:17:31;;;;;;;5.27;3.80;;;;;;;16.86;58.77;100345.37;125270;1102;104401;-78
2021/05/23 01:20:19;;;;;;;5.83;3.50;;;;;;;16.85;59.40;100358.58;125194;1102;104322;-79
2021/05/23 01:22:59;;;;;;;5.67;3.50;;;;;;;16.82;59.51;100364.73;125225;1102;104264;-79
2021/05/23 01:25:30;;;;;;;5.50;3.23;;;;;;;16.83;59.03;100352.39;125245;1102;104219;-78
2021/05/23 01:28:01;;;;;;;5.47;3.60;;;;;;;16.86;59.50;100347.12;125190;1102;104329;-79
2021/05/23 01:30:32;;;;;;;7.67;3.57;;;;;;;16.88;59.12;100356.86;125240;1102;104156;-77
2021/05/23 01:33:04;;;;;;;8.10;3.70;;;;;;;16.89;59.52;100350.70;125297;1099;104329;-79
2021/05/23 01:35:36;;;;;;;6.97;3.30;;;;;;;16.89;59.58;100345.40;125514;1099;104271;-78
2021/05/23 01:38:11;;;;;;;5.03;3.60;;;;;;;16.91;59.81;100352.45;125305;1099;104194;-78
2021/05/23 01:40:41;;;;;;;6.53;3.80;;;;;;;16.90;59.39;100351.58;126040;1099;104312;-79
2021/05/23 01:43:11;;;;;;;6.00;3.80;;;;;;;16.91;59.82;100355.10;126160;1099;104319;-78
2021/05/23 01:45:41;;;;;;;5.43;3.40;;;;;;;16.91;59.54;100360.41;126132;1099;104181;-78
2021/05/23 01:48:11;;;;;;;6.07;3.90;;;;;;;16.89;59.41;100353.34;125430;1102;104475;-79
2021/05/23 01:50:41;;;;;;;7.70;3.83;;;;;;;16.87;59.91;100357.73;126209;1099;104141;-78
2021/05/23 01:53:10;;;;;;;5.17;3.80;;;;;;;16.86;59.54;100360.37;126239;1099;104191;-79
2021/05/23 01:55:40;;;;;;;4.53;3.30;;;;;;;16.87;59.73;100365.67;126261;1099;104134;-80
2021/05/23 01:58:10;;;;;;;6.83;3.80;;;;;;;16.87;59.44;100367.45;126294;1099;104255;-80
2021/05/23 02:00:41;;;;;;;6.13;3.57;;;;;;;16.89;59.82;100369.25;126230;1098;104268;-80
2021/05/23 02:03:12;;;;;;;7.10;3.90;;;;;;;16.90;59.72;100370.13;126320;1099;104284;-79
2021/05/23 02:05:48;;;;;;;6.00;3.80;;;;;;;16.90;59.63;100372.78;126224;1099;104172;-77
2021/05/23 02:08:21;;;;;;;8.07;4.07;;;;;;;16.88;59.65;100370.12;126276;1099;104134;-78
2021/05/23 02:10:54;;;;;;;6.43;3.77;;;;;;;16.88;59.82;100372.77;125234;1099;104137;-78
2021/05/23 02:13:24;;;;;;;8.95;3.90;;;;;;;16.86;60.24;100370.97;125305;1101;104306;-78
2021/05/23 02:16:00;;;;;;;9.47;4.13;;;;;;;16.84;60.34;100373.60;125232;1102;104306;-77
2021/05/23 02:18:32;;;;;;;6.70;4.13;;;;;;;16.83;60.38;100386.84;125199;1102;104181;-79
2021/05/23 02:21:01;;;;;;;6.80;3.50;;;;;;;16.80;59.91;100384.16;125215;1102;104396;-78
2021/05/23 02:23:31;;;;;;;12.07;3.60;;;;;;;16.79;59.92;100391.20;125205;1102;104201;-79
2021/05/23 02:26:00;;;;;;;8.50;3.90;;;;;;;16.78;60.60;100397.41;125251;1102;104139;-79
2021/05/23 02:28:29;;;;;;;7.73;3.73;;;;;;;16.78;60.23;100392.09;125201;1102;104238;-79
2021/05/23 02:30:58;;;;;;;12.03;4.10;;;;;;;16.79;60.11;100393.85;125151;1102;104328;-79
2021/05/23 02:33:28;;;;;;;7.40;3.90;;;;;;;16.79;60.83;100390.33;125181;1102;104558;-79
2021/05/23 02:35:58;;;;;;;8.37;3.93;;;;;;;16.77;60.38;100395.61;125190;1102;104186;-79
2021/05/23 02:38:27;;;;;;;6.87;3.97;;;;;;;16.78;60.98;100402.70;125212;1102;104197;-79
2021/05/23 02:40:57;;;;;;;7.07;3.93;;;;;;;16.80;60.78;100413.31;125009;1102;104817;-78
2021/05/23 02:43:26;;;;;;;8.03;4.03;;;;;;;16.78;61.01;100410.65;125201;1102;104152;-79
2021/05/23 02:45:55;;;;;;;7.00;3.80;;;;;;;16.76;61.09;100414.15;126012;1099;104172;-78
2021/05/23 02:48:25;;;;;;;9.97;3.73;;;;;;;16.77;60.57;100416.81;126200;1099;104191;-78
2021/05/23 02:50:54;;;;;;;5.85;3.40;;;;;;;16.79;60.75;100417.70;125392;1099;104306;-79
2021/05/23 02:53:24;;;;;;;6.63;3.60;;;;;;;16.81;61.36;100428.31;126174;1099;104274;-79
2021/05/23 02:55:53;;;;;;;10.03;4.40;;;;;;;16.81;60.74;100430.97;126240;1099;104257;-80
2021/05/23 02:58:23;;;;;;;10.87;4.53;;;;;;;16.81;61.24;100434.52;126271;1099;104136;-79
2021/05/23 03:00:52;;;;;;;10.00;4.20;;;;;;;16.82;61.53;100438.92;126175;1099;104249;-79
2021/05/23 03:03:21;;;;;;;6.30;3.70;;;;;;;16.83;61.56;100443.36;126332;1099;104251;-79
2021/05/23 03:05:50;;;;;;;7.20;4.10;;;;;;;16.82;61.01;100441.58;126280;1099;104156;-79
2021/05/23 03:08:21;;;;;;;7.50;3.80;;;;;;;16.79;61.08;100454.80;126266;1099;104216;-80
2021/05/23 03:10:55;;;;;;;7.40;4.20;;;;;;;16.77;61.36;100443.31;126272;1099;104137;-79
2021/05/23 03:13:24;;;;;;;8.48;4.30;;;;;;;16.74;61.30;100445.92;126246;1099;104181;-79
2021/05/23 03:15:53;;;;;;;12.33;3.70;;;;;;;16.77;61.62;100455.67;126287;1099;104146;-79
2021/05/23 03:18:23;;;;;;;6.10;3.80;;;;;;;16.74;61.93;100453.00;126286;1099;104178;-79
2021/05/23 03:20:52;;;;;;;9.37;4.13;;;;;;;16.72;61.48;100463.58;126155;1099;104229;-79
2021/05/23 03:23:21;;;;;;;6.93;4.10;;;;;;;16.71;61.80;100465.32;126270;1099;104134;-79
2021/05/23 03:25:50;;;;;;;10.70;4.80;;;;;;;16.74;61.72;100469.77;126286;1098;104173;-79
2021/05/23 03:28:21;;;;;;;8.47;4.40;;;;;;;16.78;61.77;100468.94;126306;1098;104149;-79
2021/05/23 03:30:51;;;;;;;10.30;4.60;;;;;;;16.80;61.91;100466.31;126187;1099;104614;-79
2021/05/23 03:33:20;;;;;;;11.53;4.33;;;;;;;16.83;61.86;100467.22;126222;1098;104411;-79
2021/05/23 03:35:49;;;;;;;8.77;4.17;;;;;;;16.86;61.75;100467.28;126305;1099;104168;-78
2021/05/23 03:38:18;;;;;;;11.23;4.33;;;;;;;16.89;61.79;100472.61;126232;1099;104326;-78
2021/05/23 03:40:51;;;;;;;7.47;4.37;;;;;;;16.92;62.33;100465.55;126228;1099;104143;-79
2021/05/23 03:43:21;;;;;;;11.53;4.35;;;;;;;16.95;62.21;100474.41;126290;1099;104146;-79
2021/05/23 03:45:53;;;;;;;7.27;4.67;;;;;;;16.97;61.75;100480.63;126233;1099;104406;-79
2021/05/23 03:48:23;;;;;;;7.40;4.40;;;;;;;17.01;62.47;100476.23;126164;1099;104239;-79
2021/05/23 03:50:52;;;;;;;8.03;4.50;;;;;;;17.00;61.80;100475.36;125322;1099;104216;-78
2021/05/23 03:53:22;;;;;;;10.57;4.10;;;;;;;17.02;62.02;100467.42;125380;1099;104139;-79
2021/05/23 03:55:51;;;;;;;11.83;4.30;;;;;;;17.01;62.16;100471.81;125390;1099;104280;-79
2021/05/23 03:58:20;;;;;;;7.87;4.10;;;;;;;17.04;61.96;100469.19;126057;1099;104482;-78
2021/05/23 04:00:49;;;;;;;6.17;3.90;;;;;;;17.12;62.33;100476.33;126060;1098;104156;-78
2021/05/23 04:03:21;;;;;;;6.87;3.53;;;;;;;17.18;62.25;100468.43;125355;1099;104264;-78
2021/05/23 04:05:51;;;;;;;8.63;4.00;;;;;;;17.26;62.09;100477.33;125427;1099;104193;-79
2021/05/23 04:08:20;;;;;;;8.40;4.23;;;;;;;17.34;62.56;100472.08;126134;1099;104392;-79
2021/05/23 04:10:54;;;;;;;9.20;4.10;;;;;;;17.42;62.25;100465.06;126080;1099;104344;-79
2021/05/23 04:13:25;;;;;;;5.73;4.23;;;;;;;17.46;62.26;100474.83;125302;1099;105890;-79
2021/05/23 04:15:54;;;;;;;5.93;3.90;;;;;;;17.47;62.20;100484.57;126097;1099;104643;-79
2021/05/23 04:18:23;;;;;;;7.70;4.10;;;;;;;17.47;62.38;100481.92;126163;1099;103197;-78
2021/05/23 04:20:53;;;;;;;7.73;4.27;;;;;;;17.48;62.37;100481.02;126056;1099;104139;-80
2021/05/23 04:23:24;;;;;;;6.15;4.20;;;;;;;17.48;62.13;100483.67;126096;1099;104784;-79
2021/05/23 04:25:53;;;;;;;6.63;4.20;;;;;;;17.51;62.54;100485.47;125399;1099;104772;-79
2021/05/23 04:28:23;;;;;;;9.60;4.10;;;;;;;17.56;62.47;100487.30;125355;1099;104291;-79
2021/05/23 04:30:52;;;;;;;9.83;3.93;;;;;;;17.64;61.99;100489.09;126150;1099;104288;-79
2021/05/23 04:33:25;;;;;;;11.90;4.50;;;;;;;17.76;61.83;100494.48;125568;1099;104216;-79
2021/05/23 04:35:54;;;;;;;7.27;4.30;;;;;;;17.84;62.04;100490.12;125185;1099;104142;-79
2021/05/23 04:38:23;;;;;;;7.03;4.10;;;;;;;17.91;62.56;100497.25;125218;1099;104445;-79
2021/05/23 04:40:53;;;;;;;7.13;4.00;;;;;;;17.95;61.83;100485.78;125339;1099;104400;-79
2021/05/23 04:43:22;;;;;;;11.53;4.23;;;;;;;17.97;62.19;100496.41;126206;1099;104188;-79
2021/05/23 04:45:51;;;;;;;8.70;4.50;;;;;;;17.96;61.92;100506.13;126238;1099;104245;-79
2021/05/23 04:48:21;;;;;;;13.37;5.50;;;;;;;17.95;62.18;100503.45;126303;1098;104137;-79
2021/05/23 04:50:52;;;;;;;15.13;6.13;;;;;;;17.94;61.99;100505.23;126289;1099;104155;-79
2021/05/23 04:53:22;;;;;;;13.97;6.63;;;;;;;17.91;62.14;100501.69;126210;1099;104137;-79
2021/05/23 04:55:53;;;;;;;12.57;5.67;;;;;;;17.89;62.07;100520.26;126257;1099;104238;-78
2021/05/23 04:58:23;;;;;;;12.80;5.03;;;;;;;17.87;62.25;100529.05;126299;1099;104209;-79
2021/05/23 05:00:52;;;;;;;9.63;5.30;;;;;;;17.86;62.34;100536.13;126206;1099;104255;-78
2021/05/23 05:03:22;;;;;;;14.55;5.70;;;;;;;17.85;62.46;100542.30;126206;1099;104181;-80
2021/05/23 05:05:51;;;;;;;13.23;6.00;;;;;;;17.82;62.47;100542.28;126274;1099;104143;-79
2021/05/23 05:08:21;;;;;;;12.63;6.23;;;;;;;17.78;62.55;100538.73;126242;1099;104169;-79
2021/05/23 05:10:50;;;;;;;12.60;5.90;;;;;;;17.79;62.45;100535.22;126267;1099;104137;-78
2021/05/23 05:13:20;;;;;;;13.13;6.10;;;;;;;17.83;62.62;100544.08;126169;1099;105218;-78
2021/05/23 05:15:51;;;;;;;14.07;6.33;;;;;;;17.87;62.74;100544.97;126305;1097;104150;-78
2021/05/23 05:18:21;;;;;;;13.20;5.83;;;;;;;17.93;62.66;100537.08;126280;1099;104149;-78
2021/05/23 05:20:52;;;;;;;9.63;5.13;;;;;;;18.00;62.67;100543.30;126203;1099;104246;-78
2021/05/23 05:23:22;;;;;;;9.20;5.43;;;;;;;18.07;62.55;100546.01;126062;1099;104213;-78
2021/05/23 05:25:51;;;;;;;10.57;5.53;;;;;;;18.17;62.73;100544.31;126018;1099;104130;-78
2021/05/23 05:28:22;;;;;;;11.87;5.33;;;;;;;18.28;62.83;100545.25;126078;1099;104271;-78
2021/05/23 05:30:51;;;;;;;9.33;5.30;;;;;;;18.37;62.65;100548.81;126139;1099;104133;-78
2021/05/23 05:33:21;;;;;;;8.43;5.07;;;;;;;18.46;62.33;100546.20;126174;1099;104140;-78
2021/05/23 05:35:50;;;;;;;8.53;4.47;;;;;;;18.54;62.59;100546.23;126189;1099;104191;-78
2021/05/23 05:38:19;;;;;;;7.43;4.17;;;;;;;18.62;62.95;100558.69;126248;1098;104220;-77
2021/05/23 05:40:49;;;;;;;6.70;4.07;;;;;;;18.71;62.89;100549.83;126240;1099;104168;-78
2021/05/23 05:43:19;;;;;;;10.40;4.60;;;;;;;18.79;62.24;100548.11;126238;1099;104146;-79
2021/05/23 05:45:48;;;;;;;6.87;4.37;;;;;;;18.88;62.62;100547.25;126312;1099;105756;-79
2021/05/23 05:48:17;;;;;;;6.63;3.87;;;;;;;18.97;62.32;100544.62;126197;1099;104232;-79
2021/05/23 05:50:47;;;;;;;5.60;3.80;;;;;;;19.06;62.18;100546.42;126272;1099;104408;-78
2021/05/23 05:53:16;;;;;;;4.77;3.30;;;;;;;19.16;62.04;100544.65;126206;1099;104187;-78
2021/05/23 05:55:45;;;;;;;5.73;3.40;;;;;;;19.28;62.43;100539.34;126195;1099;104299;-78
2021/05/23 05:58:15;;;;;;;7.30;3.67;;;;;;;19.40;61.82;100541.13;126253;1099;104169;-79
2021/05/23 06:00:46;;;;;;;6.40;3.67;;;;;;;19.49;62.26;100546.42;126305;1099;104721;-79
2021/05/23 06:03:20;;;;;;;5.97;3.83;;;;;;;19.59;61.84;100534.02;126234;1099;104130;-78
2021/05/23 06:05:53;;;;;;;5.90;3.63;;;;;;;19.67;62.19;100540.22;126208;1099;104252;-78
2021/05/23 06:08:24;;;;;;;5.27;3.40;;;;;;;19.72;61.95;100546.41;126044;1099;104171;-77
2021/05/23 06:10:54;;;;;;;11.70;3.60;;;;;;;19.78;61.00;100547.35;126316;1099;104162;-79
2021/05/23 06:13:23;;;;;;;8.87;3.80;;;;;;;19.84;60.88;100553.55;126310;1099;104341;-79
2021/05/23 06:15:53;;;;;;;6.97;3.70;;;;;;;19.91;61.13;100554.41;126200;1099;104174;-80
2021/05/23 06:18:26;;;;;;;8.27;4.40;;;;;;;19.98;60.84;100549.98;126308;1099;104133;-78
2021/05/23 06:20:56;;;;;;;11.30;3.87;;;;;;;20.04;60.72;100545.52;126311;1098;104136;-80
2021/05/23 06:23:26;;;;;;;6.73;3.70;;;;;;;20.09;60.87;100545.51;126264;1099;104182;-79
2021/05/23 06:25:55;;;;;;;9.07;4.03;;;;;;;20.16;61.09;100543.70;126212;1099;104169;-79
2021/05/23 06:28:24;;;;;;;10.05;3.70;;;;;;;20.20;59.79;100553.47;126213;1099;104293;-79
2021/05/23 06:30:54;;;;;;;5.50;3.30;;;;;;;20.29;58.96;100564.10;126296;1099;104245;-78
2021/05/23 06:33:23;;;;;;;6.67;3.53;;;;;;;20.35;59.33;100555.18;126269;1099;104175;-80
2021/05/23 06:35:56;;;;;;;10.80;3.27;;;;;;;20.43;59.79;100564.93;126248;1099;105492;-79
2021/05/23 06:38:26;;;;;;;5.90;3.47;;;;;;;20.50;59.08;100567.57;126249;1099;104274;-78
2021/05/23 06:40:56;;;;;;;9.90;3.60;;;;;;;20.54;58.34;100559.56;126235;1099;104134;-81
2021/05/23 06:43:26;;;;;;;5.67;3.37;;;;;;;20.58;59.08;100571.95;126290;1099;104152;-79
2021/05/23 06:45:55;;;;;;;6.33;3.17;;;;;;;20.62;58.12;100573.73;126281;1099;104618;-79
2021/05/23 06:48:26;;;;;;;4.87;3.27;;;;;;;20.69;58.56;100579.06;126350;1099;104246;-79
2021/05/23 06:50:56;;;;;;;6.17;3.30;;;;;;;20.74;58.45;100583.50;126298;1099;104144;-80
2021/05/23 06:53:26;;;;;;;5.23;3.30;;;;;;;20.84;58.41;100578.99;126232;1098;104200;-79
2021/05/23 06:55:56;;;;;;;7.47;3.60;;;;;;;20.94;57.86;100578.06;126264;1099;104201;-79
2021/05/23 06:58:26;;;;;;;6.47;3.30;;;;;;;21.04;57.89;100578.88;126309;1098;104165;-79
2021/05/23 07:00:55;;;;;;;7.13;3.40;;;;;;;21.15;57.55;100576.16;126326;1099;104241;-79
2021/05/23 07:03:25;;;;;;;6.17;3.83;;;;;;;21.31;57.51;100579.59;126218;1099;104221;-79
2021/05/23 07:05:54;;;;;;;7.00;3.40;;;;;;;21.43;57.67;100576.83;126228;1099;104174;-79
2021/05/23 07:08:26;;;;;;;4.93;3.20;;;;;;;21.56;56.37;100563.42;126274;1099;104171;-79
2021/05/23 07:10:55;;;;;;;6.17;3.03;;;;;;;21.68;57.29;100571.33;126260;1099;104682;-79
2021/05/23 07:13:26;;;;;;;6.97;3.23;;;;;;;21.79;56.28;100574.77;126316;1098;104163;-79
2021/05/23 07:15:56;;;;;;;4.80;3.10;;;;;;;21.94;55.85;100565.73;126185;1099;104235;-79
2021/05/23 07:18:26;;;;;;;5.63;3.20;;;;;;;22.03;55.27;100559.39;126280;1099;104306;-78
2021/05/23 07:20:59;;;;;;;4.85;3.05;;;;;;;22.12;55.63;100561.97;126293;1099;104147;-78
2021/05/23 07:23:29;;;;;;;6.27;3.27;;;;;;;22.22;55.53;100557.40;126303;1099;104153;-79
2021/05/23 07:25:58;;;;;;;4.95;2.90;;;;;;;22.35;55.45;100558.20;126189;1099;104239;-79
2021/05/23 07:28:28;;;;;;;4.83;3.30;;;;;;;22.49;54.53;100571.41;126277;1099;104163;-78
2021/05/23 07:30:57;;;;;;;5.03;3.20;;;;;;;22.66;54.12;100577.41;126189;1099;104195;-78
2021/05/23 07:33:27;;;;;;;4.85;3.10;;;;;;;22.76;54.65;100572.81;126271;1097;104142;-78
2021/05/23 07:35:56;;;;;;;7.35;3.20;;;;;;;22.86;54.86;100565.55;126229;1099;104652;-79
2021/05/23 07:38:25;;;;;;;7.03;3.20;;;;;;;22.94;54.57;100561.86;126279;1099;104694;-79
2021/05/23 07:40:55;;;;;;;5.40;3.07;;;;;;;23.01;54.39;100568.00;126266;1099;104366;-80
2021/05/23 07:43:24;;;;;;;6.93;3.20;;;;;;;23.23;53.39;100573.95;126247;1099;104400;-78
2021/05/23 07:45:54;;;;;;;4.83;3.40;;;;;;;23.35;53.52;100577.36;126258;1099;104245;-79
2021/05/23 07:48:23;;;;;;;4.70;2.90;;;;;;;23.41;53.49;100574.59;126255;1099;104153;-79
2021/05/23 07:50:52;;;;;;;4.27;2.83;;;;;;;23.50;53.60;100577.99;126267;1099;104229;-79
2021/05/23 07:53:22;;;;;;;6.03;3.13;;;;;;;23.60;53.33;100576.03;126227;1097;104235;-79
2021/05/23 07:55:51;;;;;;;6.40;3.00;;;;;;;23.62;53.32;100579.59;126254;1099;104137;-78
2021/05/23 07:58:22;;;;;;;4.57;3.03;;;;;;;23.65;53.12;100582.22;126195;1099;104113;-79
2021/05/23 08:00:52;;;;;;;5.73;2.93;;;;;;;23.78;52.49;100590.02;126252;1099;104210;-78
2021/05/23 08:03:21;;;;;;;5.33;3.20;;;;;;;24.00;52.38;100593.25;126213;1099;104220;-78
2021/05/23 08:05:51;;;;;;;3.93;3.13;;;;;;;24.08;52.05;100598.47;126226;1099;104194;-80
2021/05/23 08:08:20;;;;;;;5.03;2.97;;;;;;;24.03;51.89;100594.07;126215;1099;104216;-79
2021/05/23 08:10:49;;;;;;;6.33;3.00;;;;;;;24.01;51.82;100598.59;126327;1099;104127;-79
2021/05/23 08:13:20;;;;;;;4.47;2.83;;;;;;;24.09;51.02;100619.89;126310;1099;104620;-78
2021/05/23 08:15:51;;;;;;;3.53;2.70;;;;;;;24.23;51.32;100608.88;126302;1099;104156;-78
2021/05/23 08:18:27;;;;;;;5.67;2.80;;;;;;;24.37;50.97;100601.48;126259;1099;104156;-79
2021/05/23 08:20:59;;;;;;;5.20;2.70;;;;;;;24.46;50.59;100591.47;126231;1099;104201;-80
2021/05/23 08:23:32;;;;;;;7.87;3.40;;;;;;;24.54;50.64;100595.78;126318;1099;104137;-78
2021/05/23 08:26:01;;;;;;;4.10;2.87;;;;;;;24.56;50.45;100580.52;126178;1099;104322;-79
2021/05/23 08:28:32;;;;;;;5.73;2.90;;;;;;;24.56;50.17;100579.66;126145;1099;104194;-78
2021/05/23 08:31:02;;;;;;;4.70;2.70;;;;;;;24.49;50.09;100580.68;126261;1099;104173;-79
2021/05/23 08:33:32;;;;;;;6.10;2.60;;;;;;;24.43;50.05;100580.80;126172;1099;104323;-81
2021/05/23 08:36:01;;;;;;;4.20;2.50;;;;;;;24.50;49.87;100580.65;126286;1099;104168;-79
2021/05/23 08:38:31;;;;;;;6.43;2.60;;;;;;;24.65;49.84;100573.22;126217;1099;104143;-79
2021/05/23 08:41:01;;;;;;;4.03;2.40;;;;;;;24.86;49.14;100571.88;126289;1099;104150;-80
2021/05/23 08:43:32;;;;;;;3.57;2.37;;;;;;;25.04;49.29;100560.73;126314;1099;104223;-78
2021/05/23 08:46:01;;;;;;;4.50;2.20;;;;;;;25.11;48.87;100553.41;126203;1099;104756;-78
2021/05/23 08:48:37;;;;;;;6.37;2.60;;;;;;;25.24;48.49;100552.20;126244;1099;104143;-77
2021/05/23 08:51:12;;;;;;;4.87;2.53;;;;;;;25.40;48.21;100551.83;126278;1099;104220;-78
2021/05/23 08:53:43;;;;;;;3.50;2.70;;;;;;;25.53;47.80;100552.44;126268;1099;104306;-78
2021/05/23 08:56:13;;;;;;;4.13;2.70;;;;;;;25.53;47.62;100555.12;126286;1099;104142;-78
2021/05/23 08:58:43;;;;;;;6.10;2.70;;;;;;;25.59;47.63;100550.46;126226;1099;104149;-78
2021/05/23 09:01:26;;;;;;;5.43;2.37;;;;;;;25.59;47.53;100557.65;125642;1099;104689;-78
2021/05/23 09:04:01;;;;;;;4.30;2.43;;;;;;;25.60;47.04;100548.65;126226;1099;104149;-76
2021/05/23 09:06:34;;;;;;;3.83;2.67;;;;;;;25.66;47.32;100551.17;126268;1099;104251;-76
2021/05/23 09:09:07;;;;;;;4.43;2.67;;;;;;;25.74;46.93;100549.20;126146;1099;104146;-77
2021/05/23 09:11:38;;;;;;;5.13;2.70;;;;;;;25.84;46.39;100552.52;126149;1099;104251;-77
2021/05/23 09:14:07;;;;;;;2.60;2.40;;;;;;;25.73;46.27;100550.11;126248;1099;104188;-76
2021/05/23 09:16:40;;;;;;;6.50;2.50;;;;;;;25.76;45.66;100558.09;126283;1099;104204;-77
2021/05/23 09:19:10;;;;;;;4.43;2.60;;;;;;;25.93;45.96;100554.05;126132;1099;105106;-76
2021/05/23 09:21:39;;;;;;;4.03;2.60;;;;;;;26.06;45.30;100551.97;126185;1098;104172;-77
2021/05/23 09:24:11;;;;;;;4.20;2.70;;;;;;;26.14;45.50;100549.94;126195;1099;104236;-77
2021/05/23 09:26:46;;;;;;;3.67;2.40;;;;;;;26.21;45.03;100550.63;126269;1099;104128;-76
2021/05/23 09:29:27;;;;;;;3.23;2.50;;;;;;;26.25;44.42;100555.01;126176;1099;104242;-78
2021/05/23 09:31:58;;;;;;;6.83;2.70;;;;;;;26.35;44.67;100553.80;126293;1099;104142;-77
2021/05/23 09:34:31;;;;;;;4.23;2.40;;;;;;;26.54;44.63;100549.66;125200;1099;104200;-76
2021/05/23 09:37:01;;;;;;;4.70;2.63;;;;;;;26.61;44.57;100544.97;125146;1102;104341;-77
2021/05/23 09:39:36;;;;;;;5.03;2.40;;;;;;;26.47;43.54;100542.69;125166;1102;104214;-78
2021/05/23 09:42:10;;;;;;;4.47;2.63;;;;;;;26.14;43.16;100548.12;126099;1099;104287;-78
2021/05/23 09:44:41;;;;;;;3.00;2.40;;;;;;;25.80;43.26;100546.34;126179;1099;104290;-78
2021/05/23 09:47:13;;;;;;;6.50;2.47;;;;;;;25.57;43.33;100554.09;126066;1099;104137;-78
2021/05/23 09:49:51;;;;;;;4.27;2.50;;;;;;;25.41;42.62;100559.86;125191;1099;104332;-79
2021/05/23 09:52:32;;;;;;;3.40;2.40;;;;;;;25.23;43.11;100561.17;125244;1099;104415;-78
2021/05/23 09:55:03;;;;;;;3.40;2.40;;;;;;;25.33;43.34;100550.24;125308;1099;104398;-78
2021/05/23 09:57:37;;;;;;;3.43;2.20;;;;;;;25.37;41.90;100558.19;125243;1099;104146;-78
2021/05/23 10:00:09;;;;;;;5.57;2.60;;;;;;;25.35;41.93;100557.32;125342;1099;104364;-79
2021/05/23 10:02:53;;;;;;;3.73;2.50;;;;;;;25.47;42.76;100559.70;126116;1099;104216;-78
2021/05/23 10:05:25;;;;;;;5.80;3.13;;;;;;;25.56;42.60;100561.28;125460;1099;104299;-79
2021/05/23 10:07:54;;;;;;;3.70;2.37;;;;;;;25.68;42.29;100554.73;126278;1099;104140;-77
2021/05/23 10:10:28;;;;;;;3.90;3.03;;;;;;;25.79;42.52;100549.95;126241;1099;104242;-77
2021/05/23 10:13:04;;;;;;;2.90;2.60;;;;;;;26.06;42.16;100550.15;126222;1098;105142;-77
2021/05/23 10:15:34;;;;;;;5.37;2.50;;;;;;;26.35;42.06;100554.70;126232;1099;104341;-77
2021/05/23 10:18:06;;;;;;;4.23;2.77;;;;;;;26.45;41.54;100544.55;126289;1099;104140;-78
2021/05/23 10:20:39;;;;;;;3.35;2.50;;;;;;;26.53;41.81;100547.89;126174;1099;104143;-77
2021/05/23 10:23:17;;;;;;;5.30;2.63;;;;;;;26.71;41.60;100549.19;126275;1099;104249;-78
2021/05/23 10:25:51;;;;;;;4.57;2.57;;;;;;;26.80;40.91;100555.20;126251;1097;104724;-79
2021/05/23 10:28:21;;;;;;;4.37;2.67;;;;;;;26.72;40.53;100548.27;126161;1099;104142;-78
2021/05/23 10:30:52;;;;;;;4.13;2.70;;;;;;;26.67;40.74;100538.56;126222;1099;104152;-78
2021/05/23 10:33:23;;;;;;;3.50;2.57;;;;;;;26.65;40.77;100532.32;126263;1099;104140;-77
2021/05/23 10:35:55;;;;;;;4.50;2.57;;;;;;;26.60;40.25;100532.46;126247;1099;104328;-78
2021/05/23 10:38:26;;;;;;;2.60;2.40;;;;;;;26.62;40.85;100521.66;126140;1099;104204;-77
2021/05/23 10:40:57;;;;;;;5.07;2.40;;;;;;;26.65;40.06;100532.32;126032;1099;104149;-77
2021/05/23 10:43:28;;;;;;;3.47;2.70;;;;;;;26.68;40.56;100537.64;125364;1099;104191;-79
2021/05/23 10:46:09;;;;;;;4.80;2.60;;;;;;;26.60;40.26;100537.84;125194;1102;104195;-78
2021/05/23 10:48:51;;;;;;;3.90;2.40;;;;;;;26.51;40.44;100532.73;125237;1102;104150;-79
2021/05/23 10:51:22;;;;;;;4.63;3.13;;;;;;;26.55;40.04;100534.38;125057;1102;105123;-78
2021/05/23 10:53:53;;;;;;;3.00;2.70;;;;;;;26.49;39.89;100532.78;125198;1102;104152;-77
2021/05/23 10:56:26;;;;;;;6.27;2.60;;;;;;;26.54;39.79;100530.83;124865;1102;104208;-77
2021/05/23 10:59:00;;;;;;;3.08;2.30;;;;;;;26.60;39.97;100537.84;125147;1102;104166;-78
2021/05/23 11:01:40;;;;;;;4.00;2.70;;;;;;;26.53;39.56;100528.18;125187;1101;104223;-78
2021/05/23 11:04:12;;;;;;;5.63;2.97;;;;;;;26.71;39.60;100524.09;125134;1102;104272;-78
2021/05/23 11:06:45;;;;;;;3.17;2.60;;;;;;;26.74;39.80;100518.62;125065;1102;104155;-77
2021/05/23 11:09:17;;;;;;;5.72;2.70;;;;;;;26.71;39.55;100529.48;125278;1100;104194;-78
2021/05/23 11:11:47;;;;;;;2.80;2.50;;;;;;;26.72;38.99;100531.22;125923;1099;104181;-79
2021/05/23 11:14:22;;;;;;;7.53;3.07;;;;;;;26.75;39.54;100524.87;125178;1102;104433;-78
2021/05/23 11:16:55;;;;;;;8.75;3.00;;;;;;;26.92;39.60;100522.52;125355;1102;104189;-78
2021/05/23 11:19:26;;;;;;;3.57;2.40;;;;;;;27.08;39.32;100523.80;126000;1099;104229;-78
2021/05/23 11:21:57;;;;;;;8.83;2.80;;;;;;;27.08;39.34;100522.91;125290;1099;104392;-77
2021/05/23 11:24:31;;;;;;;9.40;2.90;;;;;;;27.02;39.08;100520.41;126148;1099;104181;-79
2021/05/23 11:27:11;;;;;;;4.73;2.83;;;;;;;27.05;39.14;100523.00;125375;1099;104174;-77